createdAt,value
2022-08-05T00:00:16.599Z,2.00
2022-08-05T00:02:51.070Z,2.08
2022-08-05T00:06:02.890Z,2.10
2022-08-05T00:08:30.834Z,2.10
2022-08-05T00:11:01.231Z,2.50
2022-08-05T00:13:39.407Z,2.67
2022-08-05T00:16:09.476Z,2.60
2022-08-05T00:18:38.297Z,2.20
2022-08-05T00:21:06.748Z,1.90
2022-08-05T00:23:46.470Z,2.33
2022-08-05T00:26:21.034Z,1.88
2022-08-05T00:28:49.433Z,2.00
2022-08-05T00:31:16.320Z,2.20
2022-08-05T00:34:55.263Z,1.85
2022-08-05T00:37:12.726Z,2.15
2022-08-05T00:39:16.100Z,2.13
2022-08-05T00:41:55.191Z,2.33
2022-08-05T00:44:30.354Z,2.05
2022-08-05T00:47:03.843Z,2.30
2022-08-05T00:49:32.601Z,2.50
2022-08-05T00:51:59.832Z,2.58
2022-08-05T00:54:28.196Z,2.30
2022-08-05T00:56:56.984Z,2.22
2022-08-05T00:59:23.736Z,2.00
2022-08-05T01:01:50.939Z,2.22
2022-08-05T01:04:20.155Z,1.85
2022-08-05T01:06:53.635Z,2.10
2022-08-05T01:09:22.082Z,2.30
2022-08-05T01:11:52.184Z,1.85
2022-08-05T01:14:46.812Z,1.92
2022-08-05T01:17:22.778Z,2.10
2022-08-05T01:20:01.964Z,2.20
2022-08-05T01:22:51.387Z,2.05
2022-08-05T01:25:41.079Z,1.55
2022-08-05T01:28:35.600Z,1.70
2022-08-05T01:31:27.744Z,2.05
2022-08-05T01:34:08.449Z,1.95
2022-08-05T01:36:46.985Z,2.65
2022-08-05T01:39:36.069Z,2.00
2022-08-05T01:42:06.718Z,1.85
2022-08-05T01:44:37.493Z,2.17
2022-08-05T01:47:05.120Z,2.05
2022-08-05T01:50:01.960Z,1.88
2022-08-05T01:52:21.225Z,1.90
2022-08-05T01:54:56.882Z,1.60
2022-08-05T01:58:12.658Z,2.10
2022-08-05T02:00:30.595Z,2.25
2022-08-05T02:03:24.601Z,2.05
2022-08-05T02:05:59.971Z,2.33
2022-08-05T02:08:31.130Z,1.77
2022-08-05T02:11:15.858Z,2.17
2022-08-05T02:14:17.413Z,1.85
2022-08-05T02:16:53.093Z,1.98
2022-08-05T02:19:35.157Z,1.90
2022-08-05T02:22:05.375Z,1.75
2022-08-05T02:24:38.290Z,2.10
2022-08-05T02:27:09.121Z,2.45
2022-08-05T02:29:59.735Z,1.65
2022-08-05T02:32:30.908Z,1.90
2022-08-05T02:35:13.570Z,2.20
2022-08-05T02:37:47.622Z,1.85
2022-08-05T02:40:21.362Z,1.85
2022-08-05T02:42:53.049Z,2.10
2022-08-05T02:45:24.205Z,1.95
2022-08-05T02:48:11.410Z,2.55
2022-08-05T02:50:43.966Z,2.30
2022-08-05T02:53:16.150Z,2.45
2022-08-05T02:55:54.471Z,2.20
2022-08-05T02:58:27.282Z,1.83
2022-08-05T03:00:56.588Z,2.13
2022-08-05T03:03:23.437Z,1.80
2022-08-05T03:06:53.761Z,2.58
2022-08-05T03:08:42.564Z,2.47
2022-08-05T03:11:56.910Z,2.00
2022-08-05T03:14:07.978Z,2.13
2022-08-05T03:16:35.630Z,2.43
2022-08-05T03:19:08.778Z,2.37
2022-08-05T03:21:41.680Z,2.03
2022-08-05T03:24:16.934Z,2.10
2022-08-05T03:26:43.476Z,2.30
2022-08-05T03:29:17.287Z,2.10
2022-08-05T03:31:57.072Z,2.03
2022-08-05T03:34:28.772Z,1.67
2022-08-05T03:39:27.082Z,1.70
2022-08-05T03:41:56.262Z,2.08
2022-08-05T03:44:23.491Z,2.45
2022-08-05T03:46:50.276Z,2.72
2022-08-05T03:49:17.150Z,2.28
2022-08-05T03:52:48.882Z,2.10
2022-08-05T03:55:53.362Z,2.20
2022-08-05T03:57:42.330Z,1.95
2022-08-05T04:00:16.033Z,2.25
2022-08-05T04:02:58.188Z,1.88
2022-08-05T04:05:33.621Z,2.20
2022-08-05T04:08:29.772Z,2.15
2022-08-05T04:10:53.420Z,1.92
2022-08-05T04:16:02.802Z,2.55
2022-08-05T04:18:32.186Z,1.80
2022-08-05T04:21:01.670Z,1.70
2022-08-05T04:24:04.980Z,1.92
2022-08-05T04:26:17.424Z,2.20
2022-08-05T04:28:50.844Z,1.90
2022-08-05T04:31:19.000Z,1.90
2022-08-05T04:34:17.569Z,3.63
2022-08-05T04:36:44.740Z,2.30
2022-08-05T04:39:15.919Z,2.10
2022-08-05T04:41:42.509Z,1.83
2022-08-05T04:46:38.487Z,2.13
2022-08-05T04:49:12.309Z,2.25
2022-08-05T04:51:41.436Z,3.00
2022-08-05T04:54:09.206Z,1.98
2022-08-05T04:56:37.199Z,1.90
2022-08-05T04:59:22.255Z,1.77
2022-08-05T05:02:07.570Z,2.15
2022-08-05T05:04:44.044Z,2.40
2022-08-05T05:07:15.902Z,2.33
2022-08-05T05:09:44.429Z,2.05
2022-08-05T05:12:11.512Z,1.80
2022-08-05T05:14:38.352Z,2.08
2022-08-05T05:17:22.738Z,2.17
2022-08-05T05:19:53.275Z,1.88
2022-08-05T05:22:24.192Z,2.58
2022-08-05T05:24:59.532Z,2.13
2022-08-05T05:27:44.331Z,2.13
2022-08-05T05:30:29.508Z,1.88
2022-08-05T05:33:00.678Z,2.33
2022-08-05T05:35:34.233Z,2.20
2022-08-05T05:38:05.538Z,2.70
2022-08-05T05:43:02.190Z,2.47
2022-08-05T05:48:05.567Z,2.20
2022-08-05T05:50:41.235Z,2.58
2022-08-05T05:53:20.866Z,2.17
2022-08-05T05:55:52.097Z,1.98
2022-08-05T05:58:31.380Z,2.58
2022-08-05T06:01:12.829Z,2.53
2022-08-05T06:04:01.100Z,2.22
2022-08-05T06:06:31.378Z,2.58
2022-08-05T06:09:05.599Z,2.30
2022-08-05T06:11:34.976Z,2.58
2022-08-05T06:14:06.162Z,2.53
2022-08-05T06:16:37.365Z,2.40
2022-08-05T06:19:07.597Z,2.40
2022-08-05T06:21:37.378Z,2.40
2022-08-05T06:24:11.395Z,3.25
2022-08-05T06:26:51.759Z,2.50
2022-08-05T06:29:46.346Z,2.22
2022-08-05T06:32:25.585Z,2.40
2022-08-05T06:34:56.890Z,2.70
2022-08-05T06:37:57.796Z,2.08
2022-08-05T06:40:13.778Z,2.20
2022-08-05T06:42:40.921Z,2.17
2022-08-05T06:45:09.364Z,2.72
2022-08-05T06:48:12.488Z,2.53
2022-08-05T06:50:23.758Z,2.58
2022-08-05T06:53:03.515Z,2.05
2022-08-05T06:55:38.459Z,3.70
2022-08-05T06:58:20.367Z,2.50
2022-08-05T07:00:57.897Z,2.45
2022-08-05T07:03:32.496Z,2.55
2022-08-05T07:06:06.196Z,2.50
2022-08-05T07:08:42.787Z,2.30
2022-08-05T07:11:15.522Z,2.47
2022-08-05T07:14:02.015Z,2.42
2022-08-05T07:18:00.227Z,2.78
2022-08-05T07:22:27.618Z,2.28
2022-08-05T07:25:21.890Z,2.28
2022-08-05T07:28:08.393Z,1.88
2022-08-05T07:30:41.207Z,2.28
2022-08-05T07:33:16.074Z,2.40
2022-08-05T07:36:05.158Z,2.97
2022-08-05T07:38:35.665Z,2.88
2022-08-05T07:42:13.615Z,2.13
2022-08-05T07:44:18.512Z,2.38
2022-08-05T07:46:48.575Z,2.60
2022-08-05T07:49:18.257Z,2.10
2022-08-05T07:51:53.023Z,2.30
2022-08-05T07:54:31.579Z,2.33
2022-08-05T07:57:13.987Z,2.75
2022-08-05T07:59:53.685Z,2.58
2022-08-05T08:02:26.751Z,2.15
2022-08-05T08:04:58.506Z,1.95
2022-08-05T08:07:25.247Z,2.15
2022-08-05T08:09:55.284Z,2.30
2022-08-05T08:12:37.054Z,1.52
2022-08-05T08:15:09.393Z,2.40
2022-08-05T08:17:40.806Z,1.90
2022-08-05T08:20:42.795Z,2.45
2022-08-05T08:23:11.680Z,2.38
2022-08-05T08:26:00.179Z,2.53
2022-08-05T08:28:37.166Z,1.90
2022-08-05T08:31:09.813Z,2.38
2022-08-05T08:33:41.650Z,2.00
2022-08-05T08:38:55.990Z,2.63
2022-08-05T08:41:26.255Z,2.15
2022-08-05T08:45:19.194Z,1.95
2022-08-05T08:46:58.110Z,1.98
2022-08-05T08:50:13.183Z,1.98
2022-08-05T08:52:19.754Z,1.80
2022-08-05T08:54:47.964Z,2.22
2022-08-05T08:57:14.829Z,2.45
2022-08-05T08:59:56.166Z,2.10
2022-08-05T09:02:33.814Z,2.25
2022-08-05T09:05:17.643Z,2.00
2022-08-05T09:07:57.437Z,2.28
2022-08-05T09:10:26.988Z,1.80
2022-08-05T09:12:55.217Z,2.10
2022-08-05T09:15:22.847Z,2.03
2022-08-05T09:17:52.967Z,2.28
2022-08-05T09:20:36.285Z,2.28
2022-08-05T09:23:19.219Z,1.77
2022-08-05T09:26:01.103Z,1.70
2022-08-05T09:28:33.440Z,2.00
2022-08-05T09:31:43.824Z,2.17
2022-08-05T09:34:04.596Z,2.13
2022-08-05T09:36:56.101Z,1.55
2022-08-05T09:39:41.362Z,1.33
2022-08-05T09:42:24.437Z,1.55
2022-08-05T09:44:56.453Z,1.80
2022-08-05T09:47:34.928Z,1.70
2022-08-05T09:50:05.038Z,1.85
2022-08-05T09:52:36.252Z,1.77
2022-08-05T09:57:59.779Z,1.63
2022-08-05T10:00:27.634Z,1.90
2022-08-05T10:02:58.662Z,1.80
2022-08-05T10:05:28.188Z,2.08
2022-08-05T10:08:35.203Z,3.05
2022-08-05T10:10:54.169Z,1.70
2022-08-05T10:13:45.779Z,1.73
2022-08-05T10:16:32.300Z,2.00
2022-08-05T10:19:01.776Z,1.80
2022-08-05T10:21:40.331Z,2.10
2022-08-05T10:24:13.453Z,2.78
2022-08-05T10:26:48.923Z,2.00
2022-08-05T10:29:24.199Z,2.10
2022-08-05T10:33:00.860Z,2.30
2022-08-05T10:34:55.361Z,2.05
2022-08-05T10:37:22.584Z,2.22
2022-08-05T10:39:59.047Z,2.30
2022-08-05T10:42:36.634Z,2.30
2022-08-05T10:45:21.419Z,2.70
2022-08-05T10:48:31.038Z,2.40
2022-08-05T10:51:00.181Z,3.30
2022-08-05T10:53:38.045Z,2.63
2022-08-05T10:56:21.103Z,2.53
2022-08-05T10:58:50.689Z,2.25
2022-08-05T11:01:28.057Z,2.60
2022-08-05T11:04:08.803Z,2.25
2022-08-05T11:07:00.372Z,2.45
2022-08-05T11:09:45.418Z,2.20
2022-08-05T11:12:37.295Z,2.40
2022-08-05T11:15:19.709Z,2.05
2022-08-05T11:18:25.977Z,2.60
2022-08-05T11:20:53.547Z,2.78
2022-08-05T11:24:04.528Z,2.50
2022-08-05T11:26:40.964Z,2.40
2022-08-05T11:29:42.665Z,2.75
2022-08-05T11:32:29.998Z,2.65
2022-08-05T11:34:57.538Z,2.47
2022-08-05T11:38:29.464Z,2.30
2022-08-05T11:41:35.104Z,2.30
2022-08-05T11:44:05.153Z,2.25
2022-08-05T11:46:35.716Z,2.35
2022-08-05T11:49:05.423Z,2.22
2022-08-05T11:51:44.776Z,2.58
2022-08-05T11:54:34.378Z,2.67
2022-08-05T11:57:08.661Z,2.40
2022-08-05T11:59:50.854Z,2.35
2022-08-05T12:02:30.366Z,2.45
2022-08-05T12:05:00.492Z,2.63
2022-08-05T12:08:07.584Z,2.85
2022-08-05T12:10:24.898Z,2.55
2022-08-05T12:13:15.633Z,2.83
2022-08-05T12:15:45.327Z,2.47
2022-08-05T12:18:32.342Z,2.47
2022-08-05T12:21:13.585Z,2.30
2022-08-05T12:24:14.062Z,2.80
2022-08-05T12:26:47.869Z,2.35
2022-08-05T12:29:23.526Z,2.63
2022-08-05T12:31:53.612Z,3.03
2022-08-05T12:34:24.035Z,2.75
2022-08-05T12:36:54.494Z,2.65
2022-08-05T12:39:23.702Z,2.35
2022-08-05T12:42:00.867Z,2.58
2022-08-05T12:44:33.469Z,2.40
2022-08-05T12:47:02.070Z,2.80
2022-08-05T12:50:03.284Z,2.38
2022-08-05T12:52:38.768Z,2.78
2022-08-05T12:55:44.201Z,2.33
2022-08-05T12:58:49.662Z,2.42
2022-08-05T13:02:03.553Z,2.55
2022-08-05T13:03:56.949Z,2.83
2022-08-05T13:08:52.978Z,2.80
2022-08-05T13:11:59.676Z,2.60
2022-08-05T13:14:24.909Z,2.60
2022-08-05T13:17:03.011Z,2.90
2022-08-05T13:19:51.590Z,2.70
2022-08-05T13:22:29.287Z,2.70
2022-08-05T13:25:05.130Z,2.97
2022-08-05T13:27:40.133Z,2.30
2022-08-05T13:30:33.955Z,2.58
2022-08-05T13:33:01.701Z,2.33
2022-08-05T13:35:43.269Z,2.17
2022-08-05T13:38:28.260Z,2.30
2022-08-05T13:40:58.584Z,2.60
2022-08-05T13:43:44.495Z,2.50
2022-08-05T13:46:12.230Z,2.10
2022-08-05T13:48:57.908Z,2.13
2022-08-05T13:54:12.772Z,2.25
2022-08-05T13:56:39.903Z,2.17
2022-08-05T13:59:19.692Z,2.30
2022-08-05T14:01:58.414Z,2.47
2022-08-05T14:04:49.954Z,2.30
2022-08-05T14:07:26.537Z,2.15
2022-08-05T14:10:19.107Z,2.67
2022-08-05T14:12:55.046Z,2.63
2022-08-05T14:16:09.325Z,2.33
2022-08-05T14:18:15.162Z,2.78
2022-08-05T14:20:48.950Z,2.50
2022-08-05T14:23:24.979Z,2.40
2022-08-05T14:25:58.896Z,2.50
2022-08-05T14:28:28.386Z,2.63
2022-08-05T14:30:56.103Z,2.80
2022-08-05T14:33:23.886Z,2.25
2022-08-05T14:35:51.732Z,2.35
2022-08-05T14:38:32.063Z,2.30
2022-08-05T14:41:05.827Z,2.50
2022-08-05T14:44:00.053Z,2.70
2022-08-05T14:46:20.163Z,2.78
2022-08-05T14:48:49.947Z,2.80
2022-08-05T14:51:17.806Z,3.20
2022-08-05T14:53:45.447Z,2.60
2022-08-05T14:56:31.969Z,3.08
2022-08-05T14:58:58.551Z,2.55
2022-08-05T15:01:48.702Z,2.58
2022-08-05T15:04:12.316Z,2.85
2022-08-05T15:06:40.391Z,2.38
2022-08-05T15:09:08.548Z,2.78
2022-08-05T15:11:50.978Z,2.40
2022-08-05T15:14:34.426Z,2.88
2022-08-05T15:17:05.114Z,2.90
2022-08-05T15:19:36.678Z,3.00
2022-08-05T15:22:05.939Z,2.55
2022-08-05T15:24:32.726Z,2.60
2022-08-05T15:26:59.262Z,2.97
2022-08-05T15:29:30.149Z,2.53
2022-08-05T15:31:57.738Z,2.63
2022-08-05T15:34:32.281Z,2.70
2022-08-05T15:37:04.895Z,3.03
2022-08-05T15:41:01.804Z,2.88
2022-08-05T15:45:07.849Z,2.60
2022-08-05T15:47:36.609Z,2.38
2022-08-05T15:50:04.225Z,2.60
2022-08-05T15:52:53.676Z,2.67
2022-08-05T15:58:07.324Z,3.00
2022-08-05T16:01:04.055Z,2.30
2022-08-05T16:03:20.985Z,2.60
2022-08-05T16:05:52.458Z,2.95
2022-08-05T16:08:19.432Z,2.85
2022-08-05T16:10:46.082Z,2.50
2022-08-05T16:13:23.608Z,2.72
2022-08-05T16:15:51.886Z,2.88
2022-08-05T16:18:19.146Z,2.83
2022-08-05T16:20:46.343Z,3.05
2022-08-05T16:23:12.933Z,2.97
2022-08-05T16:25:40.076Z,3.05
2022-08-05T16:28:09.666Z,2.83
2022-08-05T16:30:37.159Z,2.70
2022-08-05T16:33:03.992Z,3.03
2022-08-05T16:35:32.560Z,3.25
2022-08-05T16:38:15.414Z,2.65
2022-08-05T16:40:47.665Z,3.03
2022-08-05T16:43:19.202Z,2.58
2022-08-05T16:46:07.518Z,2.83
2022-08-05T16:48:35.346Z,3.05
2022-08-05T16:51:02.317Z,2.70
2022-08-05T16:54:05.025Z,3.30
2022-08-05T16:56:24.032Z,2.55
2022-08-05T16:58:51.321Z,2.42
2022-08-05T17:03:46.093Z,3.15
2022-08-05T17:06:13.450Z,3.05
2022-08-05T17:08:53.405Z,3.22
2022-08-05T17:11:25.414Z,2.83
2022-08-05T17:14:05.427Z,2.70
2022-08-05T17:16:36.829Z,3.13
2022-08-05T17:19:07.330Z,3.00
2022-08-05T17:21:37.080Z,2.42
2022-08-05T17:24:19.310Z,2.40
2022-08-05T17:26:58.678Z,2.50
2022-08-05T17:29:33.632Z,2.55
2022-08-05T17:32:11.178Z,2.60
2022-08-05T17:34:39.093Z,2.40
2022-08-05T17:37:35.962Z,2.35
2022-08-05T17:39:55.855Z,2.75
2022-08-05T17:42:25.831Z,2.58
2022-08-05T17:44:56.627Z,3.00
2022-08-05T17:47:23.746Z,2.45
2022-08-05T17:50:00.350Z,2.45
2022-08-05T17:52:34.225Z,2.40
2022-08-05T17:55:01.274Z,2.72
2022-08-05T17:57:30.026Z,2.63
2022-08-05T18:00:04.761Z,2.85
2022-08-05T18:02:34.228Z,3.17
2022-08-05T18:05:06.400Z,2.90
2022-08-05T18:07:41.470Z,2.60
2022-08-05T18:10:11.006Z,2.95
2022-08-05T18:12:38.311Z,2.88
2022-08-05T18:15:05.974Z,2.67
2022-08-05T18:18:01.118Z,2.92
2022-08-05T18:20:29.602Z,3.30
2022-08-05T18:23:00.562Z,3.13
2022-08-05T18:25:35.874Z,2.63
2022-08-05T18:28:04.759Z,2.67
2022-08-05T18:30:33.104Z,3.33
2022-08-05T18:33:01.129Z,3.00
2022-08-05T18:36:00.795Z,2.97
2022-08-05T18:38:19.370Z,2.85
2022-08-05T18:41:57.225Z,3.00
2022-08-05T18:43:42.816Z,2.93
2022-08-05T18:46:15.120Z,3.00
2022-08-05T18:48:42.164Z,3.10
2022-08-05T18:52:03.271Z,3.35
2022-08-05T18:54:14.582Z,3.50
2022-08-05T18:56:41.895Z,2.90
2022-08-05T18:59:42.908Z,3.50
2022-08-05T19:02:04.961Z,2.43
2022-08-05T19:05:03.030Z,2.67
2022-08-05T19:07:45.916Z,2.92
2022-08-05T19:10:13.245Z,2.30
2022-08-05T19:12:40.375Z,3.15
2022-08-05T19:15:45.079Z,2.42
2022-08-05T19:17:59.103Z,2.30
2022-08-05T19:20:36.758Z,2.63
2022-08-05T19:23:03.333Z,2.28
2022-08-05T19:25:41.949Z,2.17
2022-08-05T19:28:10.485Z,1.65
2022-08-05T19:30:37.034Z,2.10
2022-08-05T19:33:05.066Z,2.00
2022-08-05T19:35:52.212Z,2.00
2022-08-05T19:38:26.498Z,2.65
2022-08-05T19:40:53.615Z,1.70
2022-08-05T19:44:04.505Z,2.35
2022-08-05T19:46:06.731Z,2.42
2022-08-05T19:48:53.270Z,1.90
2022-08-05T19:51:56.591Z,2.00
2022-08-05T19:54:26.635Z,2.10
2022-08-05T19:59:54.586Z,2.35
2022-08-05T20:02:08.456Z,2.13
2022-08-05T20:04:35.178Z,2.15
2022-08-05T20:07:02.710Z,2.47
2022-08-05T20:09:29.456Z,2.53
2022-08-05T20:12:16.036Z,2.40
2022-08-05T20:14:45.553Z,2.53
2022-08-05T20:17:18.689Z,2.22
2022-08-05T20:19:45.244Z,2.35
2022-08-05T20:22:11.903Z,2.30
2022-08-05T20:24:38.468Z,2.53
2022-08-05T20:27:11.248Z,2.33
2022-08-05T20:29:38.360Z,2.47
2022-08-05T20:34:33.101Z,2.53
2022-08-05T20:37:00.781Z,2.33
2022-08-05T20:39:35.563Z,2.67
2022-08-05T20:42:04.955Z,2.50
2022-08-05T20:47:07.517Z,2.58
2022-08-05T20:49:39.450Z,3.92
2022-08-05T20:52:07.048Z,3.03
2022-08-05T20:54:59.805Z,3.13
2022-08-05T20:57:24.650Z,2.45
2022-08-05T21:00:19.891Z,3.22
2022-08-05T21:03:00.062Z,3.85
2022-08-05T21:05:28.565Z,3.88
2022-08-05T21:08:15.033Z,3.55
2022-08-05T21:10:48.715Z,3.13
2022-08-05T21:13:36.744Z,4.47
2022-08-05T21:16:03.693Z,3.07
2022-08-05T21:18:30.539Z,2.95
2022-08-05T21:20:57.422Z,2.88
2022-08-05T21:23:24.720Z,2.97
2022-08-05T21:25:51.690Z,2.65
2022-08-05T21:28:23.741Z,2.53
2022-08-05T21:30:50.692Z,2.80
2022-08-05T21:33:22.589Z,2.85
2022-08-05T21:35:55.984Z,2.53
2022-08-05T21:38:26.484Z,2.80
2022-08-05T21:40:53.056Z,2.42
2022-08-05T21:43:24.778Z,2.45
2022-08-05T21:45:56.834Z,2.92
2022-08-05T21:48:24.426Z,3.05
2022-08-05T21:50:53.189Z,3.20
2022-08-05T21:53:21.509Z,2.97
2022-08-05T21:56:06.022Z,2.78
2022-08-05T21:58:42.408Z,2.90
2022-08-05T22:01:23.959Z,3.38
2022-08-05T22:03:53.079Z,3.03
2022-08-05T22:06:22.866Z,4.00
2022-08-05T22:09:01.616Z,2.80
2022-08-05T22:11:40.140Z,3.50
2022-08-05T22:14:35.236Z,3.55
2022-08-05T22:16:56.073Z,2.78
2022-08-05T22:20:01.193Z,3.03
2022-08-05T22:22:11.558Z,3.00
2022-08-05T22:24:57.319Z,2.60
2022-08-05T22:28:04.907Z,2.72
2022-08-05T22:30:32.444Z,2.78
2022-08-05T22:33:02.470Z,3.13
2022-08-05T22:35:30.995Z,2.88
2022-08-05T22:38:17.233Z,2.83
2022-08-05T22:40:49.414Z,2.75
2022-08-05T22:43:36.974Z,2.95
2022-08-05T22:46:09.056Z,2.85
2022-08-05T22:48:40.084Z,2.63
2022-08-05T22:53:58.028Z,2.65
2022-08-05T22:56:30.140Z,2.60
2022-08-05T22:58:58.160Z,2.53
2022-08-05T23:02:04.662Z,2.92
2022-08-05T23:04:13.587Z,2.95
2022-08-05T23:06:41.049Z,2.65
2022-08-05T23:09:27.741Z,2.30
2022-08-05T23:11:55.605Z,3.63
2022-08-05T23:14:31.971Z,2.90
2022-08-05T23:17:18.605Z,3.28
2022-08-05T23:19:59.047Z,2.25
2022-08-05T23:22:27.281Z,2.80
2022-08-05T23:24:55.265Z,2.78
2022-08-05T23:27:22.758Z,2.85
2022-08-05T23:29:50.761Z,2.92
2022-08-05T23:32:17.572Z,2.75
2022-08-05T23:34:49.757Z,3.13
2022-08-05T23:37:17.757Z,3.03
2022-08-05T23:39:53.825Z,3.13
2022-08-05T23:42:23.450Z,2.72
2022-08-05T23:44:56.435Z,2.85
2022-08-05T23:47:25.067Z,2.40
2022-08-05T23:49:55.502Z,2.90
2022-08-05T23:52:35.983Z,2.92
2022-08-05T23:55:09.913Z,2.28
2022-08-05T23:57:37.618Z,2.70
